createdAt,value
2019-02-23T01:44:31.320Z,10.00
2019-02-23T01:49:37.054Z,14.83
2019-02-23T01:54:44.216Z,10.87
2019-02-23T01:59:49.324Z,13.40
2019-02-23T02:04:54.294Z,13.17
2019-02-23T02:09:58.687Z,12.67
2019-02-23T02:15:04.233Z,12.93
2019-02-23T02:20:11.457Z,11.63
2019-02-23T02:25:18.973Z,11.10
2019-02-23T02:30:23.887Z,11.90
2019-02-23T02:35:29.132Z,16.30
2019-02-23T02:40:35.313Z,10.93
2019-02-23T02:45:40.428Z,12.90
2019-02-23T02:50:45.387Z,13.50
2019-02-23T02:55:50.379Z,11.13
2019-02-23T03:00:56.026Z,11.23
2019-02-23T03:06:02.563Z,10.77
2019-02-23T03:11:09.382Z,15.23
2019-02-23T03:16:16.919Z,10.53
2019-02-23T03:21:21.989Z,10.03
2019-02-23T03:26:27.270Z,10.17
2019-02-23T03:31:33.932Z,9.27
2019-02-23T03:36:39.927Z,10.17
2019-02-23T03:41:45.490Z,12.60
2019-02-23T03:46:52.899Z,8.77
2019-02-23T03:51:59.842Z,9.00
2019-02-23T03:57:06.165Z,10.47
2019-02-23T04:02:11.650Z,9.40
2019-02-23T04:07:16.846Z,9.40
2019-02-23T04:12:22.392Z,9.23
2019-02-23T04:17:27.988Z,8.83
2019-02-23T04:22:33.270Z,10.23
2019-02-23T04:27:38.139Z,9.00
2019-02-23T04:32:43.258Z,9.07
2019-02-23T04:37:48.295Z,10.93
2019-02-23T04:42:53.133Z,11.63
2019-02-23T04:47:58.030Z,11.80
2019-02-23T04:53:02.940Z,12.87
2019-02-23T04:58:07.824Z,13.70
2019-02-23T05:03:13.895Z,11.47
2019-02-23T05:08:18.893Z,12.17
2019-02-23T05:13:23.224Z,12.20
2019-02-23T05:18:27.335Z,10.93
2019-02-23T05:23:32.124Z,10.70
2019-02-23T05:28:38.514Z,11.07
2019-02-23T05:33:43.558Z,8.33
2019-02-23T05:38:48.616Z,12.63
2019-02-23T05:43:52.913Z,11.33
2019-02-23T05:48:57.468Z,11.57
2019-02-23T05:54:11.458Z,13.23
2019-02-23T05:59:16.451Z,11.63
2019-02-23T06:04:20.653Z,11.37
2019-02-23T06:09:25.445Z,11.90
2019-02-23T06:14:30.060Z,10.57
2019-02-23T06:19:35.497Z,13.17
2019-02-23T06:24:41.986Z,13.13
2019-02-23T06:29:46.736Z,13.97
2019-02-23T06:34:52.242Z,13.60
2019-02-23T06:39:59.768Z,14.07
2019-02-23T06:45:04.249Z,14.73
2019-02-23T06:50:09.121Z,12.73
2019-02-23T06:55:15.148Z,12.03
2019-02-23T07:00:22.212Z,12.97
2019-02-23T07:05:34.107Z,12.17
2019-02-23T07:10:39.755Z,12.47
2019-02-23T07:15:44.885Z,10.47
2019-02-23T07:21:00.425Z,13.97
2019-02-23T07:26:07.048Z,11.57
2019-02-23T07:31:12.202Z,12.20
2019-02-23T07:36:17.250Z,12.23
2019-02-23T07:41:22.405Z,10.83
2019-02-23T07:46:30.141Z,12.40
2019-02-23T07:51:36.231Z,10.37
2019-02-23T07:56:48.343Z,10.47
2019-02-23T08:01:53.349Z,10.63
2019-02-23T08:06:58.381Z,11.37
2019-02-23T08:12:02.849Z,11.10
2019-02-23T08:17:09.269Z,10.73
2019-02-23T08:22:14.374Z,12.00
2019-02-23T08:27:20.717Z,10.13
2019-02-23T08:32:25.914Z,10.53
2019-02-23T08:37:31.433Z,9.23
2019-02-23T08:42:49.135Z,9.77
2019-02-23T08:47:53.607Z,9.80
2019-02-23T08:52:57.643Z,10.33
2019-02-23T08:58:02.581Z,10.27
2019-02-23T09:03:07.031Z,10.10
2019-02-23T09:08:13.117Z,10.30
2019-02-23T09:13:18.111Z,8.80
2019-02-23T09:18:22.513Z,10.17
2019-02-23T09:23:28.462Z,10.53
2019-02-23T09:28:33.279Z,9.80
2019-02-23T09:33:38.308Z,10.10
2019-02-23T09:38:42.479Z,10.17
2019-02-23T09:43:47.281Z,9.70
2019-02-23T09:48:52.080Z,8.40
2019-02-23T09:53:56.976Z,9.30
2019-02-23T09:59:05.470Z,9.77
2019-02-23T10:04:10.446Z,8.93
2019-02-23T10:09:15.640Z,8.70
2019-02-23T10:14:20.580Z,9.70
2019-02-23T10:19:25.465Z,7.77
2019-02-23T10:24:31.804Z,10.07
2019-02-23T10:29:37.481Z,9.87
2019-02-23T10:34:42.410Z,8.30
2019-02-23T10:39:47.276Z,8.87
2019-02-23T10:44:52.128Z,9.93
2019-02-23T10:49:57.352Z,8.93
2019-02-23T10:55:02.752Z,9.83
2019-02-23T11:00:14.905Z,10.00
2019-02-23T11:05:20.857Z,9.47
2019-02-23T11:10:26.767Z,8.57
2019-02-23T11:15:31.789Z,7.43
2019-02-23T11:20:37.014Z,8.37
2019-02-23T11:25:50.807Z,8.10
2019-02-23T11:30:56.914Z,8.10
2019-02-23T11:36:01.962Z,7.13
2019-02-23T11:41:07.055Z,5.43
2019-02-23T11:46:12.823Z,5.33
2019-02-23T11:51:19.081Z,5.27
2019-02-23T11:56:27.582Z,4.80
2019-02-23T12:01:32.792Z,5.00
2019-02-23T12:06:38.007Z,6.17
2019-02-23T12:11:43.773Z,5.83
2019-02-23T12:16:49.579Z,6.30
2019-02-23T12:21:56.224Z,6.50
2019-02-23T12:27:02.184Z,4.57
2019-02-23T12:32:08.199Z,4.23
2019-02-23T12:37:13.485Z,5.60
2019-02-23T12:42:19.070Z,4.63
2019-02-23T12:47:23.872Z,6.03
2019-02-23T12:52:31.201Z,5.57
2019-02-23T12:57:36.073Z,5.77
2019-02-23T13:02:41.386Z,6.80
2019-02-23T13:07:47.393Z,5.30
2019-02-23T13:12:59.767Z,5.10
2019-02-23T13:18:33.955Z,5.27
2019-02-23T13:24:37.972Z,5.33
2019-02-23T13:30:24.271Z,5.00
2019-02-23T13:36:19.537Z,4.93
2019-02-23T13:41:53.139Z,4.70
2019-02-23T13:47:39.888Z,4.60
2019-02-23T13:53:25.580Z,5.67
2019-02-23T13:59:18.668Z,4.80
2019-02-23T14:04:55.534Z,4.83
2019-02-23T14:10:36.174Z,4.97
2019-02-23T14:16:06.210Z,4.63
2019-02-23T14:21:37.932Z,5.17
2019-02-23T14:27:13.843Z,5.17
2019-02-23T14:33:06.300Z,4.90
2019-02-23T14:38:49.066Z,4.20
2019-02-23T14:44:18.538Z,4.47
2019-02-23T14:49:58.918Z,4.63
2019-02-23T14:55:56.883Z,4.60
2019-02-23T15:01:43.385Z,4.77
2019-02-23T15:07:25.021Z,4.53
2019-02-23T15:12:37.479Z,4.33
2019-02-23T15:18:03.822Z,5.07
2019-02-23T15:23:33.240Z,4.83
2019-02-23T15:29:06.914Z,4.80
2019-02-23T15:34:50.653Z,5.00
2019-02-23T15:40:37.275Z,4.37
2019-02-23T15:46:15.251Z,4.87
2019-02-23T15:51:21.380Z,4.77
2019-02-23T15:56:26.369Z,5.23
2019-02-23T16:01:31.320Z,5.07
2019-02-23T16:06:36.432Z,4.50
2019-02-23T16:11:41.632Z,5.50
2019-02-23T16:16:47.551Z,4.90
2019-02-23T16:21:53.647Z,4.97
2019-02-23T16:26:58.650Z,5.20
2019-02-23T16:32:03.718Z,4.90
2019-02-23T16:37:08.715Z,4.83
2019-02-23T16:42:14.938Z,4.90
2019-02-23T16:47:20.113Z,4.87
2019-02-23T16:52:25.908Z,5.70
2019-02-23T16:57:40.776Z,5.63
2019-02-23T17:02:45.719Z,4.90
2019-02-23T17:07:53.757Z,5.50
2019-02-23T17:12:58.947Z,4.77
2019-02-23T17:18:03.196Z,5.23
2019-02-23T17:23:07.619Z,4.97
2019-02-23T17:28:13.784Z,5.27
2019-02-23T17:33:19.892Z,5.70
2019-02-23T17:38:26.509Z,5.53
2019-02-23T17:43:31.628Z,5.93
2019-02-23T17:48:35.902Z,5.23
2019-02-23T17:53:40.738Z,5.40
2019-02-23T17:58:45.061Z,5.53
2019-02-23T18:03:49.895Z,6.53
2019-02-23T18:08:54.998Z,5.33
2019-02-23T18:14:00.147Z,6.33
2019-02-23T18:19:04.953Z,5.70
2019-02-23T18:24:09.434Z,6.50
2019-02-23T18:29:14.492Z,6.20
2019-02-23T18:34:19.286Z,5.17
2019-02-23T18:39:23.499Z,5.33
2019-02-23T18:44:33.204Z,6.47
2019-02-23T18:49:38.098Z,4.70
2019-02-23T18:54:43.003Z,4.80
2019-02-23T18:59:50.954Z,5.20
2019-02-23T19:04:56.580Z,6.20
2019-02-23T19:10:01.840Z,5.23
2019-02-23T19:15:07.798Z,6.67
2019-02-23T19:20:13.230Z,6.27
2019-02-23T19:25:17.702Z,5.67
2019-02-23T19:30:22.030Z,6.03
2019-02-23T19:35:26.177Z,6.03
2019-02-23T19:40:30.517Z,6.30
2019-02-23T19:45:35.603Z,5.90
2019-02-23T19:50:45.225Z,5.83
2019-02-23T19:55:49.627Z,6.10
2019-02-23T20:00:59.554Z,6.33
2019-02-23T20:06:03.640Z,6.53
2019-02-23T20:11:09.010Z,7.83
2019-02-23T20:16:13.509Z,6.77
2019-02-23T20:21:18.873Z,6.13
2019-02-23T20:26:27.450Z,6.90
2019-02-23T20:31:32.220Z,7.10
2019-02-23T20:36:36.522Z,7.07
2019-02-23T20:41:41.216Z,6.40
2019-02-23T20:46:45.396Z,7.03
2019-02-23T20:51:50.133Z,6.53
2019-02-23T20:56:54.884Z,6.33
2019-02-23T21:01:59.186Z,7.40
2019-02-23T21:07:03.378Z,6.57
2019-02-23T21:12:10.815Z,7.07
2019-02-23T21:17:18.445Z,7.10
2019-02-23T21:22:23.316Z,6.57
2019-02-23T21:27:27.552Z,7.33
2019-02-23T21:32:31.981Z,6.17
2019-02-23T21:37:36.348Z,7.17
2019-02-23T21:42:40.540Z,6.07
2019-02-23T21:47:44.856Z,6.37
2019-02-23T21:52:49.502Z,6.87
2019-02-23T21:57:54.357Z,8.33
2019-02-23T22:02:59.303Z,7.20
2019-02-23T22:08:04.611Z,7.00
2019-02-23T22:13:09.681Z,6.87
2019-02-23T22:18:14.916Z,6.30
2019-02-23T22:23:20.825Z,7.20
2019-02-23T22:28:24.874Z,5.73
2019-02-23T22:33:29.779Z,7.00
2019-02-23T22:38:34.640Z,6.20
2019-02-23T22:43:40.119Z,7.67
2019-02-23T22:48:44.956Z,6.73
2019-02-23T22:53:49.864Z,6.63
2019-02-23T22:58:54.838Z,6.77
2019-02-23T23:03:59.629Z,6.77
2019-02-23T23:09:06.624Z,6.77
2019-02-23T23:14:11.014Z,6.20
2019-02-23T23:19:15.993Z,6.60
2019-02-23T23:24:23.289Z,7.00
2019-02-23T23:29:27.463Z,6.57
2019-02-23T23:34:36.135Z,6.73
2019-02-23T23:39:43.038Z,6.50
2019-02-23T23:44:50.025Z,5.80
2019-02-23T23:49:54.297Z,7.57
2019-02-23T23:54:59.139Z,6.20
